createdAt,value
2018-05-08T00:00:18.824Z,99268.47
2018-05-08T00:02:46.466Z,99269.77
2018-05-08T00:05:14.025Z,99261.33
2018-05-08T00:07:41.641Z,99262.80
2018-05-08T00:10:09.289Z,99257.84
2018-05-08T00:12:36.852Z,99272.40
2018-05-08T00:15:04.462Z,99266.70
2018-05-08T00:17:32.021Z,99259.98
2018-05-08T00:19:59.584Z,99265.95
2018-05-08T00:22:27.156Z,99261.28
2018-05-08T00:24:54.725Z,99259.88
2018-05-08T00:27:22.295Z,99261.86
2018-05-08T00:29:49.856Z,99268.83
2018-05-08T00:32:17.546Z,99274.16
2018-05-08T00:34:45.108Z,99274.36
2018-05-08T00:37:12.669Z,99277.50
2018-05-08T00:39:40.253Z,99275.38
2018-05-08T00:42:07.877Z,99271.22
2018-05-08T00:44:35.492Z,99278.52
2018-05-08T00:47:03.052Z,99275.50
2018-05-08T00:49:30.622Z,99275.00
2018-05-08T00:51:58.262Z,99276.72
2018-05-08T00:54:37.686Z,99287.46
2018-05-08T00:57:05.256Z,99282.05
2018-05-08T00:59:32.881Z,99276.84
2018-05-08T01:02:00.553Z,99276.23
2018-05-08T01:04:28.174Z,99275.41
2018-05-08T01:06:55.732Z,99272.69
2018-05-08T01:09:23.296Z,99270.29
2018-05-08T01:11:50.917Z,99263.41
2018-05-08T01:14:18.582Z,99264.15
2018-05-08T01:16:46.253Z,99260.47
2018-05-08T01:19:13.866Z,99263.83
2018-05-08T01:21:41.507Z,99261.28
2018-05-08T01:24:09.126Z,99262.44
2018-05-08T01:26:36.752Z,99261.83
2018-05-08T01:29:04.314Z,99261.63
2018-05-08T01:31:31.951Z,99260.88
2018-05-08T01:33:59.489Z,99264.49
2018-05-08T01:36:27.070Z,99259.11
2018-05-08T01:38:54.696Z,99263.41
2018-05-08T01:41:22.317Z,99261.51
2018-05-08T01:43:49.929Z,99260.20
2018-05-08T01:46:17.540Z,99266.52
2018-05-08T01:48:45.105Z,99267.53
2018-05-08T01:51:12.780Z,99260.09
2018-05-08T01:53:40.425Z,99258.81
2018-05-08T01:56:08.022Z,99256.36
2018-05-08T01:58:35.560Z,99251.53
2018-05-08T02:01:03.180Z,99252.00
2018-05-08T02:03:30.806Z,99249.86
2018-05-08T02:05:58.363Z,99246.56
2018-05-08T02:08:25.916Z,99244.20
2018-05-08T02:10:53.541Z,99237.73
2018-05-08T02:13:21.157Z,99238.63
2018-05-08T02:15:48.720Z,99245.74
2018-05-08T02:18:16.342Z,99235.23
2018-05-08T02:20:43.899Z,99237.73
2018-05-08T02:23:11.525Z,99238.73
2018-05-08T02:25:39.089Z,99237.49
2018-05-08T02:28:06.685Z,99231.13
2018-05-08T02:30:34.248Z,99226.69
2018-05-08T02:33:01.856Z,99223.22
2018-05-08T02:35:29.412Z,99226.66
2018-05-08T02:37:56.976Z,99224.66
2018-05-08T02:40:24.546Z,99227.02
2018-05-08T02:42:52.104Z,99227.73
2018-05-08T02:45:19.672Z,99235.47
2018-05-08T02:47:47.234Z,99232.72
2018-05-08T02:50:14.844Z,99218.58
2018-05-08T02:52:42.444Z,99226.64
2018-05-08T02:55:10.051Z,99223.41
2018-05-08T02:57:37.686Z,99229.33
2018-05-08T03:00:05.243Z,99227.16
2018-05-08T03:02:32.873Z,99225.45
2018-05-08T03:05:00.538Z,99218.56
2018-05-08T03:07:28.152Z,99212.76
2018-05-08T03:09:55.730Z,99209.55
2018-05-08T03:12:23.285Z,99210.68
2018-05-08T03:14:50.914Z,99212.48
2018-05-08T03:17:18.468Z,99211.00
2018-05-08T03:19:46.028Z,99197.81
2018-05-08T03:22:13.712Z,99201.78
2018-05-08T03:24:41.308Z,99202.75
2018-05-08T03:27:08.929Z,99196.39
2018-05-08T03:29:36.545Z,99197.45
2018-05-08T03:32:04.145Z,99199.71
2018-05-08T03:34:31.767Z,99194.25
2018-05-08T03:36:59.398Z,99190.39
2018-05-08T03:39:26.952Z,99192.25
2018-05-08T03:41:54.620Z,99189.73
2018-05-08T03:44:22.237Z,99199.19
2018-05-08T03:46:49.785Z,99197.88
2018-05-08T03:49:17.347Z,99199.05
2018-05-08T03:51:44.913Z,99194.30
2018-05-08T03:54:12.502Z,99205.34
2018-05-08T03:56:40.103Z,99202.88
2018-05-08T03:59:07.781Z,99202.13
2018-05-08T04:01:47.045Z,99208.86
2018-05-08T04:04:26.631Z,99200.53
2018-05-08T04:07:05.996Z,99203.48
2018-05-08T04:09:33.612Z,99213.59
2018-05-08T04:12:01.180Z,99214.11
2018-05-08T04:14:28.763Z,99217.06
2018-05-08T04:16:56.432Z,99217.45
2018-05-08T04:19:24.048Z,99218.66
2018-05-08T04:21:51.672Z,99207.06
2018-05-08T04:24:19.306Z,99201.70
2018-05-08T04:26:46.929Z,99200.81
2018-05-08T04:29:14.574Z,99196.45
2018-05-08T04:31:42.149Z,99191.22
2018-05-08T04:34:09.726Z,99175.20
2018-05-08T04:36:37.288Z,99166.45
2018-05-08T04:39:05.723Z,99159.66
2018-05-08T04:41:33.348Z,99158.17
2018-05-08T04:44:00.964Z,99149.16
2018-05-08T04:46:28.516Z,99155.55
2018-05-08T04:48:56.141Z,99155.53
2018-05-08T04:51:23.700Z,99151.52
2018-05-08T04:53:51.325Z,99146.76
2018-05-08T04:56:18.897Z,99146.18
2018-05-08T04:58:46.459Z,99143.42
2018-05-08T05:01:14.140Z,99154.60
2018-05-08T05:03:41.724Z,99159.21
2018-05-08T05:06:09.288Z,99153.70
2018-05-08T05:08:36.873Z,99155.98
2018-05-08T05:11:04.485Z,99159.17
2018-05-08T05:13:32.151Z,99162.20
2018-05-08T05:15:59.769Z,99161.11
2018-05-08T05:18:27.465Z,99164.36
2018-05-08T05:20:55.098Z,99152.11
2018-05-08T05:23:22.717Z,99164.96
2018-05-08T05:25:50.288Z,99169.38
2018-05-08T05:28:17.837Z,99175.48
2018-05-08T05:30:45.451Z,99174.37
2018-05-08T05:33:13.016Z,99179.41
2018-05-08T05:35:40.669Z,99183.09
2018-05-08T05:38:08.310Z,99177.70
2018-05-08T05:40:35.873Z,99184.40
2018-05-08T05:43:03.508Z,99180.55
2018-05-08T05:45:31.153Z,99178.98
2018-05-08T05:47:58.719Z,99175.38
2018-05-08T05:50:26.336Z,99170.45
2018-05-08T05:52:53.964Z,99168.74
2018-05-08T05:55:21.530Z,99169.50
2018-05-08T05:57:49.157Z,99157.33
2018-05-08T06:00:16.732Z,99156.79
2018-05-08T06:02:44.307Z,99166.12
2018-05-08T06:05:11.985Z,99163.50
2018-05-08T06:07:39.544Z,99164.73
2018-05-08T06:10:07.156Z,99163.61
2018-05-08T06:12:34.785Z,99158.77
2018-05-08T06:15:02.356Z,99159.91
2018-05-08T06:17:29.988Z,99158.80
2018-05-08T06:19:57.556Z,99150.65
2018-05-08T06:22:25.112Z,99151.98
2018-05-08T06:24:52.729Z,99146.58
2018-05-08T06:27:20.359Z,99139.68
2018-05-08T06:29:47.920Z,99137.67
2018-05-08T06:32:15.484Z,99141.69
2018-05-08T06:34:43.117Z,99132.97
2018-05-08T06:37:10.696Z,99126.79
2018-05-08T06:39:38.265Z,99130.31
2018-05-08T06:42:05.834Z,99126.42
2018-05-08T06:44:33.450Z,99125.93
2018-05-08T06:47:01.008Z,99124.69
2018-05-08T06:49:28.572Z,99120.30
2018-05-08T06:51:56.140Z,99129.19
2018-05-08T06:54:23.752Z,99121.61
2018-05-08T06:56:51.390Z,99125.02
2018-05-08T06:59:19.008Z,99122.92
2018-05-08T07:01:46.623Z,99122.70
2018-05-08T07:04:14.184Z,99121.73
2018-05-08T07:06:41.805Z,99107.20
2018-05-08T07:09:09.469Z,99114.64
2018-05-08T07:11:37.029Z,99110.80
2018-05-08T07:14:04.592Z,99107.75
2018-05-08T07:16:32.166Z,99104.63
2018-05-08T07:18:59.780Z,99103.63
2018-05-08T07:21:27.409Z,99102.50
2018-05-08T07:23:55.101Z,99102.08
2018-05-08T07:26:22.664Z,99096.48
2018-05-08T07:28:50.229Z,99101.20
2018-05-08T07:31:17.831Z,99104.79
2018-05-08T07:33:45.385Z,99097.91
2018-05-08T07:36:12.992Z,99101.67
2018-05-08T07:38:40.548Z,99100.80
2018-05-08T07:41:08.109Z,99098.48
2018-05-08T07:43:35.676Z,99098.30
2018-05-08T07:46:03.233Z,99094.30
2018-05-08T07:48:30.808Z,99086.32
2018-05-08T07:50:58.420Z,99090.09
2018-05-08T07:53:26.094Z,99079.44
2018-05-08T07:55:53.710Z,99077.88
2018-05-08T07:58:21.268Z,99076.30
2018-05-08T08:00:48.832Z,99081.22
2018-05-08T08:03:16.426Z,99080.55
2018-05-08T08:05:44.090Z,99080.63
2018-05-08T08:08:11.641Z,99082.49
2018-05-08T08:10:39.254Z,99079.06
2018-05-08T08:13:06.893Z,99072.96
2018-05-08T08:15:34.466Z,99077.88
2018-05-08T08:18:02.082Z,99071.64
2018-05-08T08:20:29.640Z,99071.47
2018-05-08T08:22:57.248Z,99070.41
2018-05-08T08:25:24.809Z,99061.70
2018-05-08T08:27:52.360Z,99064.67
2018-05-08T08:30:19.929Z,99063.33
2018-05-08T08:32:47.480Z,99057.60
2018-05-08T08:35:15.047Z,99067.30
2018-05-08T08:37:42.665Z,99061.58
2018-05-08T08:40:10.333Z,99058.05
2018-05-08T08:42:37.885Z,99055.81
2018-05-08T08:45:05.527Z,99061.80
2018-05-08T08:47:33.132Z,99062.37
2018-05-08T08:50:00.692Z,99067.05
2018-05-08T08:52:28.365Z,99068.87
2018-05-08T08:54:55.981Z,99069.83
2018-05-08T08:57:23.538Z,99063.58
2018-05-08T08:59:51.109Z,99069.73
2018-05-08T09:02:18.725Z,99065.28
2018-05-08T09:04:46.369Z,99070.21
2018-05-08T09:07:13.969Z,99063.97
2018-05-08T09:09:41.582Z,99063.78
2018-05-08T09:12:09.198Z,99063.93
2018-05-08T09:14:36.855Z,99059.38
2018-05-08T09:17:04.425Z,99059.31
2018-05-08T09:19:32.010Z,99059.04
2018-05-08T09:21:59.641Z,99051.69
2018-05-08T09:24:27.196Z,99050.86
2018-05-08T09:26:54.804Z,99049.36
2018-05-08T09:29:22.364Z,99051.00
2018-05-08T09:31:49.924Z,99050.75
2018-05-08T09:34:17.491Z,99050.81
2018-05-08T09:39:19.086Z,99046.98
2018-05-08T09:41:46.640Z,99038.63
2018-05-08T09:44:14.231Z,99039.01
2018-05-08T09:46:41.799Z,99039.27
2018-05-08T09:49:09.452Z,99034.63
2018-05-08T09:51:36.961Z,99035.63
2018-05-08T09:54:04.636Z,99025.74
2018-05-08T09:56:32.261Z,99027.54
2018-05-08T09:58:59.817Z,99023.22
2018-05-08T10:01:27.436Z,99023.77
2018-05-08T10:03:55.000Z,99020.63
2018-05-08T10:06:22.619Z,99020.12
2018-05-08T10:08:50.185Z,99019.70
2018-05-08T10:11:17.757Z,99017.30
2018-05-08T10:13:45.381Z,99014.66
2018-05-08T10:16:12.964Z,99014.54
2018-05-08T10:18:40.525Z,99013.42
2018-05-08T10:21:08.161Z,99010.75
2018-05-08T10:23:35.715Z,98999.44
2018-05-08T10:26:03.391Z,99001.97
2018-05-08T10:28:31.010Z,98995.80
2018-05-08T10:30:58.678Z,98997.77
2018-05-08T10:33:26.314Z,98981.81
2018-05-08T10:35:53.942Z,98978.35
2018-05-08T10:38:21.516Z,98981.41
2018-05-08T10:40:49.076Z,98979.20
2018-05-08T10:43:16.733Z,98976.72
2018-05-08T10:45:44.288Z,98968.94
2018-05-08T10:48:11.909Z,98966.72
2018-05-08T10:50:39.533Z,98972.30
2018-05-08T10:53:07.178Z,98965.13
2018-05-08T10:55:34.742Z,98960.52
2018-05-08T10:58:02.308Z,98951.25
2018-05-08T11:00:29.936Z,98951.42
2018-05-08T11:02:57.574Z,98959.16
2018-05-08T11:05:25.189Z,98955.95
2018-05-08T11:07:52.729Z,98948.25
2018-05-08T11:10:20.290Z,98947.16
2018-05-08T11:12:47.862Z,98954.23
2018-05-08T11:15:15.493Z,98966.38
2018-05-08T11:17:43.114Z,98954.85
2018-05-08T11:20:10.677Z,98957.14
2018-05-08T11:22:38.243Z,98966.23
2018-05-08T11:25:05.792Z,98970.06
2018-05-08T11:27:33.362Z,98959.36
2018-05-08T11:30:00.939Z,98955.70
2018-05-08T11:32:28.501Z,98956.02
2018-05-08T11:34:56.198Z,98953.11
2018-05-08T11:37:23.827Z,98956.73
2018-05-08T11:39:51.389Z,98943.49
2018-05-08T11:42:18.951Z,98949.80
2018-05-08T11:44:46.547Z,98948.97
2018-05-08T11:47:14.113Z,98955.06
2018-05-08T11:49:41.711Z,98946.66
2018-05-08T11:52:09.404Z,98948.29
2018-05-08T11:54:37.027Z,98937.31
2018-05-08T11:57:04.669Z,98942.61
2018-05-08T11:59:32.241Z,98939.09
2018-05-08T12:01:59.792Z,98939.53
2018-05-08T12:04:27.513Z,98933.91
2018-05-08T12:06:55.076Z,98938.22
2018-05-08T12:09:22.624Z,98931.84
2018-05-08T12:11:50.184Z,98934.49
2018-05-08T12:14:17.775Z,98930.67
2018-05-08T12:16:45.401Z,98927.56
2018-05-08T12:19:13.021Z,98929.97
2018-05-08T12:21:40.617Z,98922.92
2018-05-08T12:24:08.254Z,98936.16
2018-05-08T12:26:35.846Z,98923.53
2018-05-08T12:29:03.421Z,98913.86
2018-05-08T12:31:31.032Z,98911.44
2018-05-08T12:33:58.648Z,98910.39
2018-05-08T12:36:26.215Z,98906.74
2018-05-08T12:38:53.849Z,98903.16
2018-05-08T12:41:21.723Z,98904.34
2018-05-08T12:43:49.043Z,98904.69
2018-05-08T12:46:16.624Z,98901.91
2018-05-08T12:48:44.180Z,98901.34
2018-05-08T12:51:11.866Z,98895.05
2018-05-08T12:53:39.439Z,98892.69
2018-05-08T12:56:07.097Z,98890.05
2018-05-08T12:58:34.651Z,98884.31
2018-05-08T13:01:02.194Z,98890.92
2018-05-08T13:03:29.773Z,98887.36
2018-05-08T13:05:57.340Z,98881.11
2018-05-08T13:08:24.962Z,98886.94
2018-05-08T13:10:52.636Z,98886.11
2018-05-08T13:13:20.265Z,98889.70
2018-05-08T13:15:47.833Z,98889.40
2018-05-08T13:18:15.395Z,98889.55
2018-05-08T13:20:42.977Z,98880.93
2018-05-08T13:23:10.530Z,98880.06
2018-05-08T13:25:38.140Z,98875.76
2018-05-08T13:28:05.732Z,98874.80
2018-05-08T13:30:33.289Z,98865.53
2018-05-08T13:33:00.949Z,98862.00
2018-05-08T13:35:28.507Z,98857.28
2018-05-08T13:37:56.085Z,98854.01
2018-05-08T13:40:23.701Z,98856.73
2018-05-08T13:42:51.333Z,98860.48
2018-05-08T13:45:18.955Z,98855.51
2018-05-08T13:47:46.532Z,98855.89
2018-05-08T13:50:14.213Z,98851.75
2018-05-08T13:52:41.746Z,98848.44
2018-05-08T13:55:09.372Z,98844.86
2018-05-08T13:57:37.005Z,98847.36
2018-05-08T14:00:04.631Z,98840.42
2018-05-08T14:02:32.190Z,98830.81
2018-05-08T14:04:59.837Z,98829.19
2018-05-08T14:07:27.465Z,98830.56
2018-05-08T14:09:55.082Z,98833.66
2018-05-08T14:12:22.706Z,98835.90
2018-05-08T14:14:50.331Z,98836.27
2018-05-08T14:17:17.945Z,98837.08
2018-05-08T14:19:45.560Z,98836.02
2018-05-08T14:22:13.187Z,98833.16
2018-05-08T14:24:40.761Z,98829.73
2018-05-08T14:27:08.497Z,98829.89
2018-05-08T14:29:36.062Z,98823.27
2018-05-08T14:32:03.673Z,98816.95
2018-05-08T14:34:31.288Z,98811.81
2018-05-08T14:36:58.857Z,98811.30
2018-05-08T14:39:26.503Z,98811.97
2018-05-08T14:41:54.113Z,98807.91
2018-05-08T14:44:21.741Z,98814.69
2018-05-08T14:46:49.403Z,98809.45
2018-05-08T14:49:17.044Z,98805.11
2018-05-08T14:51:44.585Z,98797.85
2018-05-08T14:54:12.160Z,98792.05
2018-05-08T14:56:39.753Z,98787.25
2018-05-08T14:59:07.320Z,98787.61
2018-05-08T15:01:34.879Z,98790.07
2018-05-08T15:04:02.553Z,98794.75
2018-05-08T15:06:30.180Z,98789.00
2018-05-08T15:08:57.746Z,98794.48
2018-05-08T15:11:25.369Z,98789.69
2018-05-08T15:13:52.936Z,98788.83
2018-05-08T15:16:20.501Z,98787.98
2018-05-08T15:18:48.064Z,98786.39
2018-05-08T15:21:15.763Z,98789.84
2018-05-08T15:23:43.437Z,98795.64
2018-05-08T15:26:11.000Z,98802.20
2018-05-08T15:28:38.627Z,98801.78
2018-05-08T15:31:06.185Z,98802.72
2018-05-08T15:33:33.823Z,98810.86
2018-05-08T15:36:01.393Z,98802.73
2018-05-08T15:38:29.006Z,98802.64
2018-05-08T15:40:56.633Z,98802.94
2018-05-08T15:43:24.289Z,98806.77
2018-05-08T15:45:51.860Z,98814.45
2018-05-08T15:48:19.425Z,98819.08
2018-05-08T15:50:47.020Z,98820.42
2018-05-08T15:53:14.599Z,98835.44
2018-05-08T15:55:42.249Z,98861.30
2018-05-08T15:58:09.813Z,98869.02
2018-05-08T16:00:37.374Z,98868.95
2018-05-08T16:03:04.940Z,98865.73
2018-05-08T16:05:32.568Z,98874.86
2018-05-08T16:08:00.128Z,98880.05
2018-05-08T16:10:27.693Z,98874.59
2018-05-08T16:12:55.316Z,98876.48
2018-05-08T16:15:22.873Z,98871.08
2018-05-08T16:17:50.490Z,98874.77
2018-05-08T16:20:18.066Z,98874.38
2018-05-08T16:22:45.630Z,98881.25
2018-05-08T16:25:13.255Z,98886.38
2018-05-08T16:27:40.816Z,98893.36
2018-05-08T16:30:08.469Z,98893.48
2018-05-08T16:32:35.972Z,98894.55
2018-05-08T16:35:03.543Z,98896.09
2018-05-08T16:37:31.160Z,98890.98
2018-05-08T16:39:58.719Z,98888.30
2018-05-08T16:42:26.258Z,98898.09
2018-05-08T16:44:53.885Z,98896.52
2018-05-08T16:47:21.441Z,98894.78
2018-05-08T16:49:49.007Z,98909.05
2018-05-08T16:52:16.582Z,98923.23
2018-05-08T16:54:44.188Z,98914.19
2018-05-08T16:57:11.798Z,98921.31
2018-05-08T16:59:39.359Z,98924.60
2018-05-08T17:02:06.989Z,98923.63
2018-05-08T17:04:34.635Z,98927.05
2018-05-08T17:07:02.199Z,98923.09
2018-05-08T17:09:29.752Z,98922.42
2018-05-08T17:11:57.364Z,98917.77
2018-05-08T17:14:24.921Z,98924.36
2018-05-08T17:16:52.542Z,98921.59
2018-05-08T17:19:20.191Z,98921.98
2018-05-08T17:21:47.780Z,98924.61
2018-05-08T17:24:15.403Z,98920.09
2018-05-08T17:26:43.020Z,98921.16
2018-05-08T17:29:10.636Z,98933.04
2018-05-08T17:31:38.253Z,98926.48
2018-05-08T17:34:05.869Z,98930.97
2018-05-08T17:36:33.528Z,98941.98
2018-05-08T17:39:01.085Z,98945.23
2018-05-08T17:41:28.648Z,98949.70
2018-05-08T17:43:56.208Z,98944.30
2018-05-08T17:46:23.864Z,98958.48
2018-05-08T17:48:51.487Z,98964.73
2018-05-08T17:51:19.075Z,98964.80
2018-05-08T17:53:46.641Z,98964.07
2018-05-08T17:56:14.202Z,98970.08
2018-05-08T17:58:41.775Z,98971.70
2018-05-08T18:01:09.399Z,98965.63
2018-05-08T18:03:37.072Z,98975.73
2018-05-08T18:06:04.710Z,98982.38
2018-05-08T18:08:32.273Z,98980.25
2018-05-08T18:10:59.885Z,98981.11
2018-05-08T18:13:27.525Z,98979.08
2018-05-08T18:15:55.098Z,98982.05
2018-05-08T18:18:22.727Z,98989.31
2018-05-08T18:20:50.408Z,98990.70
2018-05-08T18:23:18.023Z,98989.83
2018-05-08T18:25:45.693Z,98990.88
2018-05-08T18:28:13.310Z,98995.05
2018-05-08T18:30:40.918Z,98997.44
2018-05-08T18:33:08.480Z,98990.46
2018-05-08T18:35:36.105Z,98997.94
2018-05-08T18:38:03.727Z,98992.61
2018-05-08T18:40:31.455Z,98991.38
2018-05-08T18:42:59.082Z,98993.80
2018-05-08T18:45:26.647Z,98997.84
2018-05-08T18:47:54.218Z,99003.55
2018-05-08T18:50:21.798Z,99001.98
2018-05-08T18:52:49.442Z,99001.70
2018-05-08T18:55:17.142Z,99004.91
2018-05-08T18:57:44.708Z,98999.92
2018-05-08T19:00:27.048Z,98992.41
2018-05-08T19:02:54.620Z,98985.95
2018-05-08T19:05:22.176Z,98986.66
2018-05-08T19:07:49.753Z,98983.16
2018-05-08T19:10:17.374Z,98984.55
2018-05-08T19:12:44.944Z,98982.91
2018-05-08T19:15:17.974Z,98995.49
2018-05-08T19:17:45.556Z,99003.55
2018-05-08T19:20:13.129Z,98995.89
2018-05-08T19:22:40.703Z,98999.73
2018-05-08T19:25:08.287Z,98993.94
2018-05-08T19:27:35.941Z,98994.96
2018-05-08T19:30:09.281Z,98998.55
2018-05-08T19:32:36.865Z,98990.20
2018-05-08T19:35:09.802Z,98995.95
2018-05-08T19:37:43.006Z,98990.94
2018-05-08T19:40:10.593Z,98995.98
2018-05-08T19:42:38.195Z,98995.31
2018-05-08T19:45:05.765Z,98994.97
2018-05-08T19:47:33.397Z,98991.04
2018-05-08T19:50:01.000Z,98996.53
2018-05-08T19:52:28.667Z,99000.94
2018-05-08T19:54:56.248Z,99007.50
2018-05-08T19:57:23.883Z,99008.23
2018-05-08T19:59:51.464Z,99011.13
2018-05-08T20:02:19.037Z,99011.38
2018-05-08T20:04:46.611Z,99008.61
2018-05-08T20:07:14.241Z,99010.11
2018-05-08T20:09:41.805Z,99004.88
2018-05-08T20:12:09.419Z,99008.89
2018-05-08T20:14:36.966Z,99014.25
2018-05-08T20:17:04.585Z,99014.53
2018-05-08T20:19:32.152Z,99005.62
2018-05-08T20:21:59.712Z,99001.46
2018-05-08T20:24:27.391Z,99001.02
2018-05-08T20:26:54.975Z,98998.28
2018-05-08T20:29:22.635Z,98998.34
2018-05-08T20:31:50.185Z,98997.67
2018-05-08T20:34:17.808Z,99002.97
2018-05-08T20:36:45.433Z,98999.41
2018-05-08T20:39:12.992Z,98994.66
2018-05-08T20:41:40.625Z,98992.05
2018-05-08T20:44:08.189Z,98988.84
2018-05-08T20:46:35.820Z,98982.02
2018-05-08T20:49:03.658Z,98978.34
2018-05-08T20:51:31.229Z,98986.45
2018-05-08T20:53:58.788Z,98984.89
2018-05-08T20:56:26.352Z,98995.13
2018-05-08T20:58:53.928Z,98998.84
2018-05-08T21:01:21.522Z,98998.80
2018-05-08T21:03:49.110Z,99005.08
2018-05-08T21:06:16.654Z,98997.73
2018-05-08T21:08:44.271Z,98997.15
2018-05-08T21:11:11.861Z,98995.41
2018-05-08T21:13:39.425Z,98994.13
2018-05-08T21:16:07.053Z,98994.42
2018-05-08T21:18:34.612Z,98992.20
2018-05-08T21:21:02.200Z,98993.89
2018-05-08T21:23:29.779Z,98993.40
2018-05-08T21:25:57.396Z,98982.78
2018-05-08T21:28:30.701Z,98986.38
2018-05-08T21:31:03.841Z,98986.65
2018-05-08T21:33:31.477Z,98986.91
2018-05-08T21:35:59.045Z,98981.64
2018-05-08T21:38:26.680Z,98970.69
2018-05-08T21:40:54.244Z,98971.59
2018-05-08T21:43:21.824Z,98968.41
2018-05-08T21:45:49.459Z,98972.94
2018-05-08T21:48:17.094Z,98968.10
2018-05-08T21:50:44.724Z,98974.31
2018-05-08T21:53:12.299Z,98973.61
2018-05-08T21:55:39.878Z,98969.23
2018-05-08T21:58:07.440Z,98975.34
2018-05-08T22:00:35.012Z,98970.00
2018-05-08T22:03:02.593Z,98970.96
2018-05-08T22:05:30.208Z,98967.77
2018-05-08T22:07:57.832Z,98965.21
2018-05-08T22:10:25.412Z,98962.33
2018-05-08T22:12:53.041Z,98954.58
2018-05-08T22:15:20.604Z,98958.90
2018-05-08T22:17:48.165Z,98957.70
2018-05-08T22:20:15.764Z,98950.61
2018-05-08T22:22:43.482Z,98949.73
2018-05-08T22:25:11.047Z,98952.28
2018-05-08T22:27:38.612Z,98936.37
2018-05-08T22:30:06.179Z,98935.95
2018-05-08T22:32:33.722Z,98931.70
2018-05-08T22:35:01.325Z,98931.41
2018-05-08T22:37:28.883Z,98935.78
2018-05-08T22:39:56.500Z,98933.60
2018-05-08T22:42:24.125Z,98937.52
2018-05-08T22:44:51.697Z,98934.91
2018-05-08T22:47:19.287Z,98936.67
2018-05-08T22:49:46.914Z,98933.13
2018-05-08T22:52:14.488Z,98943.30
2018-05-08T22:54:42.053Z,98951.30
2018-05-08T22:57:09.672Z,98947.17
2018-05-08T22:59:37.289Z,98943.45
2018-05-08T23:02:04.910Z,98938.00
2018-05-08T23:04:32.484Z,98936.22
2018-05-08T23:07:00.049Z,98933.67
2018-05-08T23:09:27.686Z,98938.42
2018-05-08T23:11:55.248Z,98935.30
2018-05-08T23:14:22.912Z,98924.30
2018-05-08T23:16:50.471Z,98924.81
2018-05-08T23:19:18.033Z,98924.42
2018-05-08T23:21:45.677Z,98929.50
2018-05-08T23:24:13.240Z,98933.00
2018-05-08T23:26:40.816Z,98928.51
2018-05-08T23:29:08.380Z,98938.15
2018-05-08T23:31:35.995Z,98933.23
2018-05-08T23:34:03.571Z,98935.48
2018-05-08T23:36:31.136Z,98930.94
2018-05-08T23:38:58.769Z,98929.28
2018-05-08T23:41:26.393Z,98929.16
2018-05-08T23:43:53.972Z,98925.09
2018-05-08T23:46:21.593Z,98927.27
2018-05-08T23:48:49.229Z,98929.72
2018-05-08T23:51:16.796Z,98930.45
2018-05-08T23:53:44.368Z,98925.52
2018-05-08T23:56:11.951Z,98925.64
2018-05-08T23:58:39.518Z,98925.23
